createdAt,value
2022-12-20T00:01:58.418Z,13.63
2022-12-20T00:04:27.070Z,12.63
2022-12-20T00:06:55.651Z,13.10
2022-12-20T00:09:26.490Z,12.67
2022-12-20T00:11:55.156Z,12.50
2022-12-20T00:14:23.750Z,11.90
2022-12-20T00:16:52.289Z,12.70
2022-12-20T00:19:20.822Z,13.73
2022-12-20T00:21:49.817Z,12.90
2022-12-20T00:24:24.041Z,13.20
2022-12-20T00:26:56.164Z,12.90
2022-12-20T00:29:24.679Z,14.40
2022-12-20T00:31:53.329Z,13.33
2022-12-20T00:34:22.001Z,13.37
2022-12-20T00:36:50.551Z,13.20
2022-12-20T00:39:19.040Z,14.73
2022-12-20T00:41:47.704Z,13.10
2022-12-20T00:44:17.576Z,13.07
2022-12-20T00:46:46.278Z,13.17
2022-12-20T00:49:16.528Z,13.00
2022-12-20T00:51:45.079Z,13.77
2022-12-20T00:54:13.593Z,13.30
2022-12-20T00:56:42.168Z,14.20
2022-12-20T00:59:10.649Z,13.60
2022-12-20T01:01:40.703Z,13.90
2022-12-20T01:04:09.529Z,14.20
2022-12-20T01:06:38.652Z,13.60
2022-12-20T01:09:07.458Z,12.97
2022-12-20T01:11:38.363Z,13.00
2022-12-20T01:14:09.713Z,12.67
2022-12-20T01:16:42.944Z,12.57
2022-12-20T01:19:14.780Z,14.17
2022-12-20T01:21:45.411Z,13.87
2022-12-20T01:24:14.460Z,14.43
2022-12-20T01:26:43.308Z,14.27
2022-12-20T01:29:12.158Z,13.80
2022-12-20T01:31:42.278Z,13.57
2022-12-20T01:34:12.843Z,13.67
2022-12-20T01:36:42.337Z,14.13
2022-12-20T01:39:14.970Z,13.70
2022-12-20T01:41:45.417Z,13.93
2022-12-20T01:45:06.977Z,13.80
2022-12-20T01:47:39.201Z,13.70
2022-12-20T01:50:10.437Z,12.83
2022-12-20T01:52:42.473Z,13.30
2022-12-20T01:55:14.896Z,13.70
2022-12-20T01:57:48.385Z,13.50
2022-12-20T02:00:17.857Z,12.97
2022-12-20T02:02:51.708Z,13.00
2022-12-20T02:05:22.859Z,13.53
2022-12-20T02:07:55.320Z,13.30
2022-12-20T02:10:31.231Z,14.73
2022-12-20T02:13:08.449Z,13.60
2022-12-20T02:15:49.901Z,14.20
2022-12-20T02:18:25.338Z,14.07
2022-12-20T02:21:10.005Z,12.93
2022-12-20T02:24:34.838Z,12.80
2022-12-20T02:27:43.928Z,13.37
2022-12-20T02:30:17.314Z,13.47
2022-12-20T02:32:58.549Z,13.67
2022-12-20T02:35:31.227Z,13.97
2022-12-20T02:38:02.939Z,13.13
2022-12-20T02:40:36.440Z,13.73
2022-12-20T02:43:29.710Z,14.30
2022-12-20T02:46:01.466Z,12.97
2022-12-20T02:48:34.593Z,13.83
2022-12-20T02:51:07.282Z,14.23
2022-12-20T02:53:36.424Z,13.27
2022-12-20T02:56:13.098Z,13.87
2022-12-20T02:58:49.808Z,12.97
2022-12-20T03:01:26.276Z,13.03
2022-12-20T03:03:56.476Z,13.70
2022-12-20T03:06:25.311Z,13.87
2022-12-20T03:08:54.004Z,13.20
2022-12-20T03:11:26.935Z,14.67
2022-12-20T03:13:55.551Z,14.10
2022-12-20T03:16:25.548Z,14.20
2022-12-20T03:18:54.487Z,14.60
2022-12-20T03:21:24.141Z,13.87
2022-12-20T03:23:52.677Z,12.97
2022-12-20T03:26:21.284Z,13.80
2022-12-20T03:28:55.591Z,13.27
2022-12-20T03:31:29.433Z,13.17
2022-12-20T03:33:58.368Z,13.30
2022-12-20T03:36:27.212Z,13.03
2022-12-20T03:39:00.602Z,13.13
2022-12-20T03:41:32.686Z,14.20
2022-12-20T03:44:01.702Z,13.77
2022-12-20T03:46:32.057Z,13.60
2022-12-20T03:49:01.086Z,13.87
2022-12-20T03:51:31.000Z,13.13
2022-12-20T03:53:59.730Z,13.33
2022-12-20T03:56:43.955Z,12.60
2022-12-20T03:59:12.529Z,12.90
2022-12-20T04:01:43.361Z,13.77
2022-12-20T04:04:14.589Z,13.77
2022-12-20T04:06:43.647Z,13.03
2022-12-20T04:09:12.317Z,14.43
2022-12-20T04:11:46.676Z,13.70
2022-12-20T04:14:17.001Z,13.80
2022-12-20T04:16:47.499Z,13.10
2022-12-20T04:19:16.209Z,13.93
2022-12-20T04:21:48.151Z,12.90
2022-12-20T04:24:18.477Z,13.50
2022-12-20T04:27:00.058Z,14.00
2022-12-20T04:29:28.987Z,13.30
2022-12-20T04:31:59.043Z,13.10
2022-12-20T04:34:27.904Z,13.43
2022-12-20T04:36:56.796Z,13.37
2022-12-20T04:39:36.600Z,13.00
2022-12-20T04:42:21.094Z,12.80
2022-12-20T04:44:50.581Z,13.43
2022-12-20T04:47:25.669Z,13.23
2022-12-20T04:49:55.776Z,14.10
2022-12-20T04:52:47.363Z,14.20
2022-12-20T04:55:17.219Z,13.87
2022-12-20T04:57:46.037Z,14.43
2022-12-20T05:00:17.321Z,14.90
2022-12-20T05:02:52.582Z,13.93
2022-12-20T05:05:23.084Z,12.93
2022-12-20T05:07:55.572Z,13.33
2022-12-20T05:10:25.281Z,14.73
2022-12-20T05:12:56.173Z,14.60
2022-12-20T05:15:39.165Z,13.67
2022-12-20T05:18:09.972Z,13.07
2022-12-20T05:20:46.792Z,13.80
2022-12-20T05:23:33.498Z,13.97
2022-12-20T05:26:20.454Z,14.47
2022-12-20T05:28:50.857Z,13.43
2022-12-20T05:31:19.784Z,13.77
2022-12-20T05:33:49.780Z,13.87
2022-12-20T05:36:19.406Z,13.90
2022-12-20T05:38:50.062Z,15.27
2022-12-20T05:41:21.146Z,13.67
2022-12-20T05:43:52.985Z,13.70
2022-12-20T05:46:21.642Z,14.20
2022-12-20T05:48:57.227Z,14.93
2022-12-20T05:51:26.074Z,13.80
2022-12-20T05:54:20.729Z,14.20
2022-12-20T05:56:55.962Z,13.40
2022-12-20T05:59:32.898Z,13.07
2022-12-20T06:02:01.764Z,13.87
2022-12-20T06:04:34.016Z,13.70
2022-12-20T06:07:06.760Z,13.00
2022-12-20T06:09:35.308Z,13.30
2022-12-20T06:12:10.765Z,13.30
2022-12-20T06:14:40.898Z,13.93
2022-12-20T06:17:09.582Z,13.27
2022-12-20T06:19:41.634Z,13.00
2022-12-20T06:22:12.602Z,13.00
2022-12-20T06:24:48.581Z,12.40
2022-12-20T06:27:22.219Z,13.20
2022-12-20T06:29:58.897Z,13.30
2022-12-20T06:32:33.553Z,12.60
2022-12-20T06:35:03.561Z,12.97
2022-12-20T06:37:32.583Z,13.87
2022-12-20T06:40:01.263Z,13.43
2022-12-20T06:42:30.010Z,12.50
2022-12-20T06:44:58.555Z,13.20
2022-12-20T06:47:27.174Z,13.13
2022-12-20T06:49:55.985Z,13.20
2022-12-20T06:52:26.330Z,12.60
2022-12-20T06:54:56.556Z,14.20
2022-12-20T06:57:25.625Z,13.40
2022-12-20T06:59:55.692Z,13.90
2022-12-20T07:02:27.646Z,13.10
2022-12-20T07:04:56.738Z,12.93
2022-12-20T07:07:26.977Z,13.13
2022-12-20T07:09:55.471Z,13.70
2022-12-20T07:12:24.425Z,13.63
2022-12-20T07:14:53.015Z,13.37
2022-12-20T07:17:21.565Z,13.20
2022-12-20T07:19:51.204Z,12.80
2022-12-20T07:22:20.077Z,12.80
2022-12-20T07:24:50.344Z,13.20
2022-12-20T07:27:18.898Z,13.03
2022-12-20T07:29:47.520Z,12.83
2022-12-20T07:32:16.628Z,11.87
2022-12-20T07:34:45.169Z,13.20
2022-12-20T07:37:14.009Z,12.90
2022-12-20T07:39:42.844Z,13.10
2022-12-20T07:42:13.879Z,12.70
2022-12-20T07:44:44.261Z,13.20
2022-12-20T07:47:12.838Z,13.67
2022-12-20T07:49:41.521Z,12.50
2022-12-20T07:52:13.803Z,12.77
2022-12-20T07:54:47.036Z,13.07
2022-12-20T07:57:21.888Z,13.00
2022-12-20T07:59:54.908Z,12.90
2022-12-20T08:02:29.335Z,12.60
2022-12-20T08:04:58.750Z,13.23
2022-12-20T08:07:29.832Z,14.17
2022-12-20T08:09:59.263Z,14.40
2022-12-20T08:12:31.866Z,12.60
2022-12-20T08:15:00.595Z,13.10
2022-12-20T08:17:29.184Z,12.70
2022-12-20T08:19:57.812Z,12.13
2022-12-20T08:22:26.358Z,12.80
2022-12-20T08:24:54.908Z,13.40
2022-12-20T08:27:23.516Z,12.17
2022-12-20T08:29:53.467Z,13.17
2022-12-20T08:32:22.033Z,13.10
2022-12-20T08:34:50.516Z,13.10
2022-12-20T08:37:19.315Z,13.40
2022-12-20T08:39:47.875Z,12.90
2022-12-20T08:42:16.536Z,13.13
2022-12-20T08:44:45.135Z,13.67
2022-12-20T08:47:15.507Z,13.67
2022-12-20T08:49:47.644Z,13.53
2022-12-20T08:52:16.787Z,12.83
2022-12-20T08:54:45.309Z,13.47
2022-12-20T08:57:14.178Z,14.07
2022-12-20T08:59:42.757Z,13.00
2022-12-20T09:02:11.512Z,13.90
2022-12-20T09:04:42.154Z,13.47
2022-12-20T09:07:10.729Z,13.33
2022-12-20T09:09:39.223Z,13.70
2022-12-20T09:12:08.561Z,13.97
2022-12-20T09:14:37.151Z,14.63
2022-12-20T09:17:06.369Z,14.07
2022-12-20T09:19:34.892Z,15.10
2022-12-20T09:22:05.099Z,13.33
2022-12-20T09:24:33.763Z,13.10
2022-12-20T09:27:02.205Z,14.23
2022-12-20T09:29:35.498Z,13.47
2022-12-20T09:32:04.482Z,13.00
2022-12-20T09:34:33.052Z,12.90
2022-12-20T09:37:01.531Z,13.20
2022-12-20T09:39:31.424Z,12.50
2022-12-20T09:42:00.513Z,12.40
2022-12-20T09:44:34.159Z,13.63
2022-12-20T09:47:10.813Z,13.33
2022-12-20T09:49:44.853Z,13.73
2022-12-20T09:52:29.858Z,12.30
2022-12-20T09:55:16.274Z,12.70
2022-12-20T09:58:00.546Z,13.63
2022-12-20T10:00:30.345Z,13.10
2022-12-20T10:03:08.941Z,12.90
2022-12-20T10:05:48.604Z,12.30
2022-12-20T10:08:39.501Z,12.60
2022-12-20T10:11:22.642Z,12.17
2022-12-20T10:14:05.789Z,12.93
2022-12-20T10:16:42.399Z,13.20
2022-12-20T10:19:34.307Z,12.40
2022-12-20T10:22:10.862Z,12.30
2022-12-20T10:24:42.645Z,12.17
2022-12-20T10:27:17.854Z,14.10
2022-12-20T10:29:48.204Z,13.07
2022-12-20T10:32:20.306Z,12.90
2022-12-20T10:34:57.905Z,13.47
2022-12-20T10:37:26.610Z,12.60
2022-12-20T10:39:55.201Z,12.73
2022-12-20T10:42:37.094Z,12.93
2022-12-20T10:45:31.191Z,13.73
2022-12-20T10:48:06.640Z,12.50
2022-12-20T10:50:36.233Z,12.10
2022-12-20T10:53:24.727Z,13.47
2022-12-20T10:55:55.427Z,12.20
2022-12-20T10:58:36.731Z,12.27
2022-12-20T11:01:15.165Z,12.33
2022-12-20T11:03:59.884Z,12.43
2022-12-20T11:06:42.113Z,13.00
2022-12-20T11:09:29.873Z,12.20
2022-12-20T11:12:08.841Z,13.23
2022-12-20T11:14:40.346Z,12.30
2022-12-20T11:17:25.195Z,13.40
2022-12-20T11:20:13.718Z,12.67
2022-12-20T11:22:53.429Z,12.80
2022-12-20T11:25:48.539Z,12.57
2022-12-20T11:28:36.192Z,13.57
2022-12-20T11:31:17.859Z,12.70
2022-12-20T11:34:05.668Z,13.20
2022-12-20T11:36:54.702Z,13.63
2022-12-20T11:39:35.455Z,12.53
2022-12-20T11:42:14.711Z,12.33
2022-12-20T11:45:06.711Z,13.23
2022-12-20T11:48:39.613Z,12.80
2022-12-20T11:51:26.253Z,12.50
2022-12-20T11:54:00.165Z,13.27
2022-12-20T11:56:40.099Z,12.87
2022-12-20T11:59:21.162Z,13.13
2022-12-20T12:01:54.844Z,12.87
2022-12-20T12:04:27.072Z,12.43
2022-12-20T12:07:04.124Z,13.00
2022-12-20T12:09:38.751Z,12.77
2022-12-20T12:12:24.459Z,13.50
2022-12-20T12:15:01.048Z,13.33
2022-12-20T12:17:39.584Z,13.33
2022-12-20T12:20:37.649Z,13.70
2022-12-20T12:23:19.514Z,13.83
2022-12-20T12:25:48.159Z,14.70
2022-12-20T12:28:19.848Z,13.80
2022-12-20T12:30:55.956Z,15.63
2022-12-20T12:33:38.068Z,14.73
2022-12-20T12:36:39.636Z,13.77
2022-12-20T12:40:03.450Z,13.23
2022-12-20T12:43:16.764Z,13.80
2022-12-20T12:45:48.378Z,13.47
2022-12-20T12:48:23.118Z,13.43
2022-12-20T12:50:55.110Z,13.50
2022-12-20T12:53:30.448Z,13.53
2022-12-20T12:56:19.178Z,13.40
2022-12-20T12:59:37.557Z,14.33
2022-12-20T13:02:38.399Z,13.90
2022-12-20T13:05:35.796Z,12.93
2022-12-20T13:08:05.123Z,13.30
2022-12-20T13:11:02.541Z,13.80
2022-12-20T13:13:31.216Z,13.10
2022-12-20T13:16:12.217Z,12.60
2022-12-20T13:18:58.074Z,13.30
2022-12-20T13:21:38.911Z,12.87
2022-12-20T13:24:53.371Z,13.50
2022-12-20T13:27:36.508Z,14.53
2022-12-20T13:30:28.270Z,13.33
2022-12-20T13:33:41.817Z,13.20
2022-12-20T13:36:35.369Z,13.70
2022-12-20T13:39:33.323Z,14.00
2022-12-20T13:42:34.237Z,14.47
2022-12-20T13:45:05.883Z,14.10
2022-12-20T13:47:46.748Z,14.30
2022-12-20T13:50:32.072Z,14.53
2022-12-20T13:53:01.213Z,14.30
2022-12-20T13:55:42.676Z,16.00
2022-12-20T13:58:20.404Z,14.40
2022-12-20T14:00:50.055Z,15.53
2022-12-20T14:03:26.398Z,14.23
2022-12-20T14:06:00.462Z,15.10
2022-12-20T14:08:33.247Z,15.07
2022-12-20T14:11:13.111Z,14.30
2022-12-20T14:13:43.659Z,14.57
2022-12-20T14:16:16.961Z,15.67
2022-12-20T14:18:50.321Z,13.67
2022-12-20T14:21:19.989Z,15.10
2022-12-20T14:23:51.727Z,15.40
2022-12-20T14:26:22.453Z,14.63
2022-12-20T14:28:54.346Z,14.67
2022-12-20T14:31:28.784Z,14.47
2022-12-20T14:34:07.506Z,14.20
2022-12-20T14:36:36.225Z,14.27
2022-12-20T14:39:26.216Z,14.43
2022-12-20T14:42:00.020Z,13.27
2022-12-20T14:44:32.085Z,14.00
2022-12-20T14:47:02.651Z,14.37
2022-12-20T14:49:34.044Z,13.77
2022-12-20T14:52:15.622Z,14.43
2022-12-20T14:57:48.669Z,14.03
2022-12-20T15:00:24.740Z,14.67
2022-12-20T15:03:01.813Z,13.93
2022-12-20T15:05:45.505Z,14.23
2022-12-20T15:08:16.930Z,14.10
2022-12-20T15:10:56.116Z,14.40
2022-12-20T15:13:30.511Z,13.70
2022-12-20T15:16:04.619Z,14.80
2022-12-20T15:18:33.800Z,14.50
2022-12-20T15:21:15.155Z,14.40
2022-12-20T15:23:48.100Z,15.00
2022-12-20T15:26:20.463Z,16.13
2022-12-20T15:28:49.205Z,14.20
2022-12-20T15:31:21.171Z,14.97
2022-12-20T15:33:50.553Z,14.50
2022-12-20T15:36:21.775Z,14.27
2022-12-20T15:41:44.686Z,14.10
2022-12-20T15:44:18.111Z,15.07
2022-12-20T15:46:48.331Z,15.23
2022-12-20T15:49:18.746Z,14.23
2022-12-20T15:51:49.325Z,13.83
2022-12-20T15:54:27.277Z,13.20
2022-12-20T15:56:56.400Z,14.67
2022-12-20T15:59:58.351Z,15.20
2022-12-20T16:02:24.805Z,15.43
2022-12-20T16:04:53.962Z,15.60
2022-12-20T16:07:23.629Z,15.17
2022-12-20T16:09:52.224Z,14.13
2022-12-20T16:12:25.993Z,14.13
2022-12-20T16:14:55.219Z,14.83
2022-12-20T16:17:25.295Z,14.73
2022-12-20T16:19:53.667Z,15.33
2022-12-20T16:22:24.036Z,13.60
2022-12-20T16:24:52.827Z,14.90
2022-12-20T16:27:21.721Z,14.53
2022-12-20T16:29:50.317Z,14.10
2022-12-20T16:32:22.476Z,13.37
2022-12-20T16:34:53.263Z,13.87
2022-12-20T16:37:21.848Z,16.10
2022-12-20T16:39:50.199Z,14.37
2022-12-20T16:42:22.396Z,13.93
2022-12-20T16:44:54.368Z,14.53
2022-12-20T16:47:22.907Z,14.17
2022-12-20T16:49:53.966Z,14.67
2022-12-20T16:52:23.701Z,13.40
2022-12-20T16:54:52.823Z,13.93
2022-12-20T16:57:21.985Z,14.63
2022-12-20T16:59:50.513Z,14.90
2022-12-20T17:02:25.789Z,14.53
2022-12-20T17:04:55.922Z,13.90
2022-12-20T17:07:24.432Z,13.97
2022-12-20T17:09:53.212Z,14.33
2022-12-20T17:12:23.757Z,14.80
2022-12-20T17:14:52.167Z,15.30
2022-12-20T17:17:20.638Z,14.83
2022-12-20T17:19:49.133Z,14.77
2022-12-20T17:22:25.650Z,15.40
2022-12-20T17:24:54.401Z,15.30
2022-12-20T17:27:22.816Z,15.03
2022-12-20T17:29:52.213Z,15.37
2022-12-20T17:32:24.174Z,14.80
2022-12-20T17:34:53.165Z,13.70
2022-12-20T17:37:24.689Z,13.70
2022-12-20T17:39:53.122Z,15.10
2022-12-20T17:42:26.995Z,14.90
2022-12-20T17:44:59.184Z,15.37
2022-12-20T17:47:27.610Z,15.03
2022-12-20T17:49:56.012Z,15.47
2022-12-20T17:52:26.653Z,15.90
2022-12-20T17:54:55.102Z,14.60
2022-12-20T17:57:23.491Z,15.47
2022-12-20T17:59:51.882Z,14.50
2022-12-20T18:02:22.836Z,14.57
2022-12-20T18:04:52.128Z,14.30
2022-12-20T18:07:20.755Z,15.13
2022-12-20T18:09:51.042Z,14.83
2022-12-20T18:12:19.548Z,14.80
2022-12-20T18:14:49.999Z,15.17
2022-12-20T18:17:18.449Z,15.33
2022-12-20T18:19:46.871Z,16.83
2022-12-20T18:22:16.021Z,15.63
2022-12-20T18:24:44.445Z,16.00
2022-12-20T18:27:14.949Z,15.00
2022-12-20T18:29:43.432Z,15.30
2022-12-20T18:32:12.653Z,15.00
2022-12-20T18:34:41.071Z,15.43
2022-12-20T18:37:09.527Z,14.73
2022-12-20T18:39:37.936Z,14.33
2022-12-20T18:42:06.483Z,15.20
2022-12-20T18:44:36.539Z,14.00
2022-12-20T18:47:05.103Z,16.20
2022-12-20T18:49:33.505Z,14.10
2022-12-20T18:52:02.208Z,14.40
2022-12-20T18:54:31.342Z,15.47
2022-12-20T18:56:59.837Z,15.13
2022-12-20T18:59:28.816Z,13.73
2022-12-20T19:01:58.685Z,15.37
2022-12-20T19:04:27.249Z,14.60
2022-12-20T19:06:55.677Z,14.83
2022-12-20T19:09:24.216Z,14.27
2022-12-20T19:11:57.090Z,13.60
2022-12-20T19:14:26.304Z,14.47
2022-12-20T19:16:54.867Z,13.97
2022-12-20T19:19:24.661Z,14.20
2022-12-20T19:21:53.168Z,14.17
2022-12-20T19:24:21.577Z,13.90
2022-12-20T19:26:49.978Z,14.10
2022-12-20T19:29:18.720Z,13.03
2022-12-20T19:31:47.824Z,15.10
2022-12-20T19:34:16.430Z,15.27
2022-12-20T19:36:48.462Z,14.30
2022-12-20T19:39:20.633Z,14.27
2022-12-20T19:42:21.917Z,14.27
2022-12-20T19:44:38.442Z,14.20
2022-12-20T19:47:07.100Z,13.87
2022-12-20T19:49:36.800Z,13.70
2022-12-20T19:52:07.791Z,14.13
2022-12-20T19:54:36.361Z,14.17
2022-12-20T19:57:05.082Z,17.80
2022-12-20T19:59:33.531Z,15.13
2022-12-20T20:02:02.270Z,15.33
2022-12-20T20:04:30.795Z,14.50
2022-12-20T20:06:59.198Z,14.80
2022-12-20T20:09:30.241Z,14.33
2022-12-20T20:11:58.708Z,13.83
2022-12-20T20:14:27.275Z,13.87
2022-12-20T20:16:55.777Z,13.70
2022-12-20T20:19:24.312Z,12.60
2022-12-20T20:21:52.769Z,13.40
2022-12-20T20:24:21.225Z,13.50
2022-12-20T20:26:51.027Z,12.93
2022-12-20T20:29:20.381Z,13.40
2022-12-20T20:31:48.848Z,13.80
2022-12-20T20:34:17.287Z,13.20
2022-12-20T20:36:45.681Z,12.90
2022-12-20T20:39:14.206Z,13.90
2022-12-20T20:41:42.917Z,14.10
2022-12-20T20:44:13.960Z,14.10
2022-12-20T20:46:42.500Z,13.20
2022-12-20T20:49:11.099Z,13.57
2022-12-20T20:51:40.042Z,14.30
2022-12-20T20:54:08.524Z,13.53
2022-12-20T20:56:37.106Z,13.27
2022-12-20T20:59:09.263Z,12.80
2022-12-20T21:01:41.909Z,13.60
2022-12-20T21:04:10.488Z,13.30
2022-12-20T21:06:41.734Z,13.37
2022-12-20T21:09:11.538Z,13.53
2022-12-20T21:11:40.177Z,13.47
2022-12-20T21:14:08.805Z,13.00
2022-12-20T21:16:37.299Z,13.20
2022-12-20T21:19:07.215Z,13.50
2022-12-20T21:21:35.585Z,12.83
2022-12-20T21:24:04.098Z,13.07
2022-12-20T21:26:32.591Z,13.07
2022-12-20T21:29:01.787Z,12.40
2022-12-20T21:31:31.026Z,12.37
2022-12-20T21:33:59.877Z,13.00
2022-12-20T21:36:29.651Z,13.87
2022-12-20T21:38:59.969Z,13.20
2022-12-20T21:41:30.583Z,13.60
2022-12-20T21:44:00.721Z,13.77
2022-12-20T21:46:32.204Z,12.70
2022-12-20T21:49:01.269Z,13.17
2022-12-20T21:51:32.229Z,12.70
2022-12-20T21:54:02.581Z,12.20
2022-12-20T21:56:34.018Z,12.47
2022-12-20T21:59:04.436Z,13.27
2022-12-20T22:01:33.905Z,12.40
2022-12-20T22:04:04.850Z,13.73
2022-12-20T22:06:35.841Z,12.87
2022-12-20T22:09:07.758Z,12.90
2022-12-20T22:11:37.383Z,11.90
2022-12-20T22:14:07.440Z,12.60
2022-12-20T22:16:36.648Z,12.80
2022-12-20T22:19:05.849Z,12.90
2022-12-20T22:21:38.301Z,13.27
2022-12-20T22:24:08.392Z,13.27
2022-12-20T22:26:40.804Z,14.80
2022-12-20T22:29:10.715Z,13.47
2022-12-20T22:31:40.105Z,12.73
2022-12-20T22:34:09.347Z,12.30
2022-12-20T22:36:39.932Z,12.30
2022-12-20T22:39:09.241Z,12.80
2022-12-20T22:41:38.237Z,12.20
2022-12-20T22:44:07.551Z,12.77
2022-12-20T22:46:36.408Z,13.13
2022-12-20T22:49:05.172Z,13.07
2022-12-20T22:51:33.952Z,13.87
2022-12-20T22:54:03.893Z,13.30
2022-12-20T22:56:32.366Z,12.23
2022-12-20T22:59:00.926Z,12.57
2022-12-20T23:01:30.233Z,13.00
2022-12-20T23:03:59.469Z,12.90
2022-12-20T23:06:28.728Z,12.80
2022-12-20T23:08:57.735Z,13.07
2022-12-20T23:11:47.146Z,12.87
2022-12-20T23:14:37.551Z,12.20
2022-12-20T23:17:08.934Z,12.30
2022-12-20T23:19:51.853Z,12.80
2022-12-20T23:22:40.385Z,13.03
2022-12-20T23:25:11.841Z,13.60
2022-12-20T23:27:43.232Z,13.67
2022-12-20T23:30:15.058Z,13.00
2022-12-20T23:32:44.888Z,13.00
2022-12-20T23:35:15.087Z,14.73
2022-12-20T23:37:45.516Z,13.83
2022-12-20T23:40:16.424Z,14.17
2022-12-20T23:42:46.922Z,14.53
2022-12-20T23:45:15.657Z,13.37
2022-12-20T23:47:44.090Z,13.00
2022-12-20T23:50:12.746Z,12.87
2022-12-20T23:52:41.186Z,13.10
2022-12-20T23:55:10.202Z,13.50
2022-12-20T23:57:38.635Z,12.50
